sensor_id;sensor_type;location;lat;lon;timestamp;P1;durP1;ratioP1;P2;durP2;ratioP2
36745;SDS011;22715;52.182;21.206;2022-07-30T00:31:39;2.78;;;1.13;;
36745;SDS011;22715;52.182;21.206;2022-07-30T00:34:04;3.80;;;0.90;;
36745;SDS011;22715;52.182;21.206;2022-07-30T00:36:29;1.75;;;1.05;;
36745;SDS011;22715;52.182;21.206;2022-07-30T00:38:55;1.23;;;0.60;;
36745;SDS011;22715;52.182;21.206;2022-07-30T00:41:20;0.95;;;0.80;;
36745;SDS011;22715;52.182;21.206;2022-07-30T00:43:49;1.85;;;0.95;;
36745;SDS011;22715;52.182;21.206;2022-07-30T00:46:15;0.57;;;0.52;;
36745;SDS011;22715;52.182;21.206;2022-07-30T00:48:41;2.70;;;0.77;;
36745;SDS011;22715;52.182;21.206;2022-07-30T00:51:06;1.35;;;1.10;;
36745;SDS011;22715;52.182;21.206;2022-07-30T00:53:32;1.55;;;0.70;;
36745;SDS011;22715;52.182;21.206;2022-07-30T00:55:57;6.07;;;1.90;;
36745;SDS011;22715;52.182;21.206;2022-07-30T00:58:23;1.95;;;1.02;;
36745;SDS011;22715;52.182;21.206;2022-07-30T01:00:48;3.78;;;0.70;;
36745;SDS011;22715;52.182;21.206;2022-07-30T01:03:13;0.85;;;0.85;;
36745;SDS011;22715;52.182;21.206;2022-07-30T01:05:39;2.30;;;1.02;;
36745;SDS011;22715;52.182;21.206;2022-07-30T01:08:04;0.95;;;0.40;;
36745;SDS011;22715;52.182;21.206;2022-07-30T01:10:30;1.65;;;1.13;;
36745;SDS011;22715;52.182;21.206;2022-07-30T01:12:55;3.05;;;0.52;;
36745;SDS011;22715;52.182;21.206;2022-07-30T01:15:23;0.98;;;0.60;;
36745;SDS011;22715;52.182;21.206;2022-07-30T01:18:00;0.77;;;0.43;;
36745;SDS011;22715;52.182;21.206;2022-07-30T01:20:29;0.73;;;0.60;;
36745;SDS011;22715;52.182;21.206;2022-07-30T01:28:34;1.00;;;0.90;;
36745;SDS011;22715;52.182;21.206;2022-07-30T01:30:59;1.73;;;0.90;;
36745;SDS011;22715;52.182;21.206;2022-07-30T01:33:26;0.88;;;0.63;;
36745;SDS011;22715;52.182;21.206;2022-07-30T01:35:56;2.45;;;0.88;;
36745;SDS011;22715;52.182;21.206;2022-07-30T01:38:26;1.52;;;0.90;;
36745;SDS011;22715;52.182;21.206;2022-07-30T01:40:52;4.35;;;1.10;;
36745;SDS011;22715;52.182;21.206;2022-07-30T01:43:19;2.75;;;1.15;;
36745;SDS011;22715;52.182;21.206;2022-07-30T01:45:46;2.55;;;1.15;;
36745;SDS011;22715;52.182;21.206;2022-07-30T01:48:12;1.67;;;0.90;;
36745;SDS011;22715;52.182;21.206;2022-07-30T01:50:41;1.23;;;1.02;;
36745;SDS011;22715;52.182;21.206;2022-07-30T01:53:07;2.90;;;1.15;;
36745;SDS011;22715;52.182;21.206;2022-07-30T01:55:35;1.48;;;0.88;;
36745;SDS011;22715;52.182;21.206;2022-07-30T01:58:04;1.98;;;1.33;;
36745;SDS011;22715;52.182;21.206;2022-07-30T02:00:30;1.00;;;0.90;;
36745;SDS011;22715;52.182;21.206;2022-07-30T02:02:57;2.38;;;0.80;;
36745;SDS011;22715;52.182;21.206;2022-07-30T02:05:22;1.42;;;1.33;;
36745;SDS011;22715;52.182;21.206;2022-07-30T02:07:51;1.27;;;0.60;;
36745;SDS011;22715;52.182;21.206;2022-07-30T02:10:23;1.90;;;0.88;;
36745;SDS011;22715;52.182;21.206;2022-07-30T02:12:53;1.13;;;0.98;;
36745;SDS011;22715;52.182;21.206;2022-07-30T02:15:33;3.78;;;1.05;;
36745;SDS011;22715;52.182;21.206;2022-07-30T02:20:54;1.38;;;0.88;;
36745;SDS011;22715;52.182;21.206;2022-07-30T02:23:24;3.08;;;0.95;;
36745;SDS011;22715;52.182;21.206;2022-07-30T02:25:50;1.13;;;1.02;;
36745;SDS011;22715;52.182;21.206;2022-07-30T02:28:19;1.65;;;1.05;;
36745;SDS011;22715;52.182;21.206;2022-07-30T02:30:47;1.63;;;1.10;;
36745;SDS011;22715;52.182;21.206;2022-07-30T02:33:14;1.40;;;1.30;;
36745;SDS011;22715;52.182;21.206;2022-07-30T02:35:41;1.63;;;0.85;;
36745;SDS011;22715;52.182;21.206;2022-07-30T02:38:06;1.13;;;0.57;;
36745;SDS011;22715;52.182;21.206;2022-07-30T02:40:44;1.58;;;0.80;;
36745;SDS011;22715;52.182;21.206;2022-07-30T02:43:16;2.35;;;0.88;;
36745;SDS011;22715;52.182;21.206;2022-07-30T02:45:43;1.65;;;1.00;;
36745;SDS011;22715;52.182;21.206;2022-07-30T02:48:13;3.80;;;1.15;;
36745;SDS011;22715;52.182;21.206;2022-07-30T02:50:39;1.20;;;0.95;;
36745;SDS011;22715;52.182;21.206;2022-07-30T02:53:06;1.63;;;0.80;;
36745;SDS011;22715;52.182;21.206;2022-07-30T02:55:33;2.83;;;1.30;;
36745;SDS011;22715;52.182;21.206;2022-07-30T02:58:00;1.52;;;0.90;;
36745;SDS011;22715;52.182;21.206;2022-07-30T03:00:27;1.92;;;1.58;;
36745;SDS011;22715;52.182;21.206;2022-07-30T03:02:53;2.33;;;1.17;;
36745;SDS011;22715;52.182;21.206;2022-07-30T03:05:20;3.15;;;1.00;;
36745;SDS011;22715;52.182;21.206;2022-07-30T03:07:45;1.77;;;0.93;;
36745;SDS011;22715;52.182;21.206;2022-07-30T03:10:11;2.88;;;0.90;;
36745;SDS011;22715;52.182;21.206;2022-07-30T03:12:40;0.95;;;0.85;;
36745;SDS011;22715;52.182;21.206;2022-07-30T03:15:06;1.23;;;0.43;;
36745;SDS011;22715;52.182;21.206;2022-07-30T03:17:34;2.70;;;1.33;;
36745;SDS011;22715;52.182;21.206;2022-07-30T03:20:02;2.05;;;0.60;;
36745;SDS011;22715;52.182;21.206;2022-07-30T03:22:29;1.50;;;0.85;;
36745;SDS011;22715;52.182;21.206;2022-07-30T03:24:56;1.85;;;1.02;;
36745;SDS011;22715;52.182;21.206;2022-07-30T03:27:22;1.13;;;0.90;;
36745;SDS011;22715;52.182;21.206;2022-07-30T03:29:48;1.83;;;1.60;;
36745;SDS011;22715;52.182;21.206;2022-07-30T03:32:16;1.85;;;1.20;;
36745;SDS011;22715;52.182;21.206;2022-07-30T03:34:41;1.20;;;0.70;;
36745;SDS011;22715;52.182;21.206;2022-07-30T03:37:07;0.88;;;0.77;;
36745;SDS011;22715;52.182;21.206;2022-07-30T03:39:33;2.85;;;1.15;;
36745;SDS011;22715;52.182;21.206;2022-07-30T03:42:02;1.42;;;1.33;;
36745;SDS011;22715;52.182;21.206;2022-07-30T03:44:28;1.40;;;1.00;;
36745;SDS011;22715;52.182;21.206;2022-07-30T03:46:53;2.40;;;1.00;;
36745;SDS011;22715;52.182;21.206;2022-07-30T03:49:20;3.05;;;1.40;;
36745;SDS011;22715;52.182;21.206;2022-07-30T03:51:46;1.65;;;1.25;;
36745;SDS011;22715;52.182;21.206;2022-07-30T03:54:13;2.72;;;1.20;;
36745;SDS011;22715;52.182;21.206;2022-07-30T03:56:39;1.55;;;1.20;;
36745;SDS011;22715;52.182;21.206;2022-07-30T03:59:05;8.77;;;0.90;;
36745;SDS011;22715;52.182;21.206;2022-07-30T04:01:30;1.10;;;1.00;;
36745;SDS011;22715;52.182;21.206;2022-07-30T04:04:03;1.58;;;1.15;;
36745;SDS011;22715;52.182;21.206;2022-07-30T04:06:28;1.52;;;1.42;;
36745;SDS011;22715;52.182;21.206;2022-07-30T04:08:54;1.58;;;1.02;;
36745;SDS011;22715;52.182;21.206;2022-07-30T04:11:19;1.20;;;1.10;;
36745;SDS011;22715;52.182;21.206;2022-07-30T04:13:44;4.18;;;1.30;;
36745;SDS011;22715;52.182;21.206;2022-07-30T04:16:14;0.85;;;0.85;;
36745;SDS011;22715;52.182;21.206;2022-07-30T04:21:19;1.52;;;0.90;;
36745;SDS011;22715;52.182;21.206;2022-07-30T04:23:46;1.38;;;1.00;;
36745;SDS011;22715;52.182;21.206;2022-07-30T04:26:12;1.30;;;0.90;;
36745;SDS011;22715;52.182;21.206;2022-07-30T04:28:38;2.42;;;0.63;;
36745;SDS011;22715;52.182;21.206;2022-07-30T04:31:05;1.58;;;1.15;;
36745;SDS011;22715;52.182;21.206;2022-07-30T04:33:31;4.45;;;1.13;;
36745;SDS011;22715;52.182;21.206;2022-07-30T04:35:57;1.85;;;1.27;;
36745;SDS011;22715;52.182;21.206;2022-07-30T04:38:23;1.58;;;1.40;;
36745;SDS011;22715;52.182;21.206;2022-07-30T04:40:49;2.42;;;1.30;;
36745;SDS011;22715;52.182;21.206;2022-07-30T04:43:15;1.90;;;1.25;;
36745;SDS011;22715;52.182;21.206;2022-07-30T04:45:40;2.47;;;0.90;;
36745;SDS011;22715;52.182;21.206;2022-07-30T04:48:06;1.90;;;1.13;;
36745;SDS011;22715;52.182;21.206;2022-07-30T04:50:31;2.58;;;1.50;;
36745;SDS011;22715;52.182;21.206;2022-07-30T04:52:58;0.82;;;0.80;;
36745;SDS011;22715;52.182;21.206;2022-07-30T04:55:23;1.02;;;1.02;;
36745;SDS011;22715;52.182;21.206;2022-07-30T04:57:51;1.70;;;0.93;;
36745;SDS011;22715;52.182;21.206;2022-07-30T05:00:17;1.75;;;1.55;;
36745;SDS011;22715;52.182;21.206;2022-07-30T05:02:43;3.20;;;1.13;;
36745;SDS011;22715;52.182;21.206;2022-07-30T05:16:08;1.98;;;0.98;;
36745;SDS011;22715;52.182;21.206;2022-07-30T05:18:33;2.08;;;1.02;;
36745;SDS011;22715;52.182;21.206;2022-07-30T05:21:06;5.18;;;1.52;;
36745;SDS011;22715;52.182;21.206;2022-07-30T05:23:32;1.50;;;1.10;;
36745;SDS011;22715;52.182;21.206;2022-07-30T05:25:59;3.63;;;1.15;;
36745;SDS011;22715;52.182;21.206;2022-07-30T05:28:26;5.80;;;1.20;;
36745;SDS011;22715;52.182;21.206;2022-07-30T05:31:07;7.85;;;2.75;;
36745;SDS011;22715;52.182;21.206;2022-07-30T05:36:02;1.45;;;1.10;;
36745;SDS011;22715;52.182;21.206;2022-07-30T05:38:35;5.38;;;2.55;;
36745;SDS011;22715;52.182;21.206;2022-07-30T05:41:00;2.47;;;2.22;;
36745;SDS011;22715;52.182;21.206;2022-07-30T05:43:25;1.30;;;1.20;;
36745;SDS011;22715;52.182;21.206;2022-07-30T05:45:52;1.92;;;1.40;;
36745;SDS011;22715;52.182;21.206;2022-07-30T05:48:17;1.75;;;1.38;;
36745;SDS011;22715;52.182;21.206;2022-07-30T05:50:42;1.80;;;1.45;;
36745;SDS011;22715;52.182;21.206;2022-07-30T05:56:11;2.95;;;0.98;;
36745;SDS011;22715;52.182;21.206;2022-07-30T05:58:36;1.17;;;1.08;;
36745;SDS011;22715;52.182;21.206;2022-07-30T06:01:02;2.35;;;1.10;;
36745;SDS011;22715;52.182;21.206;2022-07-30T06:06:30;1.17;;;1.00;;
36745;SDS011;22715;52.182;21.206;2022-07-30T06:09:06;1.15;;;1.15;;
36745;SDS011;22715;52.182;21.206;2022-07-30T06:11:34;2.35;;;1.27;;
36745;SDS011;22715;52.182;21.206;2022-07-30T06:13:59;3.97;;;1.60;;
36745;SDS011;22715;52.182;21.206;2022-07-30T06:16:25;2.53;;;0.98;;
36745;SDS011;22715;52.182;21.206;2022-07-30T06:18:51;4.50;;;3.15;;
36745;SDS011;22715;52.182;21.206;2022-07-30T06:21:19;1.38;;;1.08;;
36745;SDS011;22715;52.182;21.206;2022-07-30T06:23:47;1.05;;;0.90;;
36745;SDS011;22715;52.182;21.206;2022-07-30T06:26:13;2.28;;;1.25;;
36745;SDS011;22715;52.182;21.206;2022-07-30T06:28:39;1.48;;;1.15;;
36745;SDS011;22715;52.182;21.206;2022-07-30T06:31:05;0.93;;;0.75;;
36745;SDS011;22715;52.182;21.206;2022-07-30T06:34:05;1.50;;;1.00;;
36745;SDS011;22715;52.182;21.206;2022-07-30T06:44:35;1.33;;;1.23;;
36745;SDS011;22715;52.182;21.206;2022-07-30T06:47:01;2.45;;;1.38;;
36745;SDS011;22715;52.182;21.206;2022-07-30T06:49:33;2.70;;;1.13;;
36745;SDS011;22715;52.182;21.206;2022-07-30T06:54:35;2.55;;;2.35;;
36745;SDS011;22715;52.182;21.206;2022-07-30T06:59:49;3.95;;;1.48;;
36745;SDS011;22715;52.182;21.206;2022-07-30T07:02:35;1.38;;;1.27;;
36745;SDS011;22715;52.182;21.206;2022-07-30T07:05:00;1.63;;;1.52;;
36745;SDS011;22715;52.182;21.206;2022-07-30T07:10:08;3.40;;;1.38;;
36745;SDS011;22715;52.182;21.206;2022-07-30T07:12:43;2.53;;;1.35;;
36745;SDS011;22715;52.182;21.206;2022-07-30T07:20:23;2.50;;;1.05;;
36745;SDS011;22715;52.182;21.206;2022-07-30T07:37:10;1.40;;;1.30;;
36745;SDS011;22715;52.182;21.206;2022-07-30T07:42:30;1.92;;;1.77;;
36745;SDS011;22715;52.182;21.206;2022-07-30T07:48:05;2.05;;;1.83;;
36745;SDS011;22715;52.182;21.206;2022-07-30T07:50:30;4.53;;;2.85;;
36745;SDS011;22715;52.182;21.206;2022-07-30T07:53:02;1.88;;;1.52;;
36745;SDS011;22715;52.182;21.206;2022-07-30T08:00:56;1.88;;;1.63;;
36745;SDS011;22715;52.182;21.206;2022-07-30T08:03:21;1.48;;;1.33;;
36745;SDS011;22715;52.182;21.206;2022-07-30T08:10:55;1.50;;;1.13;;
36745;SDS011;22715;52.182;21.206;2022-07-30T08:15:56;2.13;;;1.83;;
36745;SDS011;22715;52.182;21.206;2022-07-30T08:20:59;1.85;;;1.30;;
36745;SDS011;22715;52.182;21.206;2022-07-30T08:23:36;3.05;;;2.00;;
36745;SDS011;22715;52.182;21.206;2022-07-30T08:33:58;2.25;;;1.75;;
36745;SDS011;22715;52.182;21.206;2022-07-30T08:36:23;1.75;;;1.42;;
36745;SDS011;22715;52.182;21.206;2022-07-30T08:41:24;2.83;;;1.40;;
36745;SDS011;22715;52.182;21.206;2022-07-30T08:43:50;3.15;;;1.70;;
36745;SDS011;22715;52.182;21.206;2022-07-30T08:46:16;3.70;;;1.40;;
36745;SDS011;22715;52.182;21.206;2022-07-30T08:48:43;2.00;;;1.80;;
36745;SDS011;22715;52.182;21.206;2022-07-30T08:51:08;2.03;;;1.40;;
36745;SDS011;22715;52.182;21.206;2022-07-30T08:53:35;3.33;;;1.70;;
36745;SDS011;22715;52.182;21.206;2022-07-30T08:56:03;2.00;;;1.60;;
36745;SDS011;22715;52.182;21.206;2022-07-30T08:58:30;1.98;;;1.48;;
36745;SDS011;22715;52.182;21.206;2022-07-30T09:06:21;4.57;;;2.67;;
36745;SDS011;22715;52.182;21.206;2022-07-30T09:08:57;4.15;;;2.10;;
36745;SDS011;22715;52.182;21.206;2022-07-30T09:11:22;1.90;;;1.33;;
36745;SDS011;22715;52.182;21.206;2022-07-30T09:13:48;14.13;;;3.22;;
36745;SDS011;22715;52.182;21.206;2022-07-30T09:21:25;1.85;;;1.65;;
36745;SDS011;22715;52.182;21.206;2022-07-30T09:42:25;4.25;;;1.73;;
36745;SDS011;22715;52.182;21.206;2022-07-30T09:47:44;1.48;;;1.25;;
36745;SDS011;22715;52.182;21.206;2022-07-30T09:50:21;2.95;;;1.00;;
36745;SDS011;22715;52.182;21.206;2022-07-30T09:53:08;1.70;;;1.48;;
36745;SDS011;22715;52.182;21.206;2022-07-30T09:55:41;1.88;;;1.40;;
36745;SDS011;22715;52.182;21.206;2022-07-30T09:58:11;2.72;;;1.55;;
36745;SDS011;22715;52.182;21.206;2022-07-30T10:00:37;2.40;;;1.40;;
36745;SDS011;22715;52.182;21.206;2022-07-30T10:05:37;2.50;;;1.63;;
36745;SDS011;22715;52.182;21.206;2022-07-30T10:08:03;2.65;;;1.25;;
36745;SDS011;22715;52.182;21.206;2022-07-30T10:15:44;1.70;;;1.60;;
36745;SDS011;22715;52.182;21.206;2022-07-30T10:20:42;5.88;;;2.88;;
36745;SDS011;22715;52.182;21.206;2022-07-30T10:23:20;4.82;;;3.38;;
36745;SDS011;22715;52.182;21.206;2022-07-30T10:25:45;8.27;;;3.97;;
36745;SDS011;22715;52.182;21.206;2022-07-30T10:28:11;7.82;;;4.82;;
36745;SDS011;22715;52.182;21.206;2022-07-30T10:30:38;8.63;;;3.38;;
36745;SDS011;22715;52.182;21.206;2022-07-30T10:33:03;4.88;;;4.47;;
36745;SDS011;22715;52.182;21.206;2022-07-30T10:35:42;3.15;;;2.50;;
36745;SDS011;22715;52.182;21.206;2022-07-30T10:38:08;3.65;;;2.17;;
36745;SDS011;22715;52.182;21.206;2022-07-30T10:48:44;7.25;;;6.53;;
36745;SDS011;22715;52.182;21.206;2022-07-30T10:51:13;11.68;;;8.02;;
36745;SDS011;22715;52.182;21.206;2022-07-30T10:53:39;9.77;;;7.68;;
36745;SDS011;22715;52.182;21.206;2022-07-30T10:56:15;7.05;;;5.03;;
36745;SDS011;22715;52.182;21.206;2022-07-30T11:04:20;3.90;;;3.08;;
36745;SDS011;22715;52.182;21.206;2022-07-30T11:06:46;4.32;;;2.42;;
36745;SDS011;22715;52.182;21.206;2022-07-30T11:11:55;3.83;;;3.20;;
36745;SDS011;22715;52.182;21.206;2022-07-30T11:14:21;4.63;;;2.63;;
36745;SDS011;22715;52.182;21.206;2022-07-30T11:16:56;9.65;;;4.82;;
36745;SDS011;22715;52.182;21.206;2022-07-30T11:19:25;5.63;;;3.10;;
36745;SDS011;22715;52.182;21.206;2022-07-30T11:24:45;5.68;;;2.78;;
36745;SDS011;22715;52.182;21.206;2022-07-30T11:29:54;6.88;;;3.72;;
36745;SDS011;22715;52.182;21.206;2022-07-30T11:32:27;3.75;;;3.17;;
36745;SDS011;22715;52.182;21.206;2022-07-30T11:35:15;3.55;;;3.15;;
36745;SDS011;22715;52.182;21.206;2022-07-30T11:40:23;4.32;;;3.35;;
36745;SDS011;22715;52.182;21.206;2022-07-30T11:45:47;6.80;;;3.13;;
36745;SDS011;22715;52.182;21.206;2022-07-30T11:55:11;4.72;;;3.70;;
36745;SDS011;22715;52.182;21.206;2022-07-30T11:58:03;3.55;;;3.22;;
36745;SDS011;22715;52.182;21.206;2022-07-30T12:00:41;4.45;;;3.28;;
36745;SDS011;22715;52.182;21.206;2022-07-30T12:03:13;3.47;;;3.17;;
36745;SDS011;22715;52.182;21.206;2022-07-30T12:08:26;3.53;;;2.58;;
36745;SDS011;22715;52.182;21.206;2022-07-30T12:10:57;3.25;;;2.95;;
36745;SDS011;22715;52.182;21.206;2022-07-30T12:13:38;4.35;;;2.97;;
36745;SDS011;22715;52.182;21.206;2022-07-30T12:16:07;3.55;;;3.17;;
36745;SDS011;22715;52.182;21.206;2022-07-30T12:18:39;4.05;;;2.63;;
36745;SDS011;22715;52.182;21.206;2022-07-30T12:21:05;3.25;;;2.70;;
36745;SDS011;22715;52.182;21.206;2022-07-30T12:26:28;6.35;;;3.35;;
36745;SDS011;22715;52.182;21.206;2022-07-30T12:32:20;3.20;;;2.80;;
36745;SDS011;22715;52.182;21.206;2022-07-30T12:35:04;6.88;;;3.97;;
36745;SDS011;22715;52.182;21.206;2022-07-30T12:38:03;4.18;;;3.20;;
36745;SDS011;22715;52.182;21.206;2022-07-30T12:52:40;3.15;;;2.85;;
36745;SDS011;22715;52.182;21.206;2022-07-30T13:04:50;3.67;;;2.97;;
36745;SDS011;22715;52.182;21.206;2022-07-30T13:07:16;4.40;;;2.80;;
36745;SDS011;22715;52.182;21.206;2022-07-30T13:09:44;5.22;;;2.88;;
36745;SDS011;22715;52.182;21.206;2022-07-30T13:12:12;3.85;;;3.15;;
36745;SDS011;22715;52.182;21.206;2022-07-30T13:14:39;7.13;;;3.72;;
36745;SDS011;22715;52.182;21.206;2022-07-30T13:17:04;3.47;;;3.13;;
36745;SDS011;22715;52.182;21.206;2022-07-30T13:19:31;4.53;;;2.90;;
36745;SDS011;22715;52.182;21.206;2022-07-30T13:21:56;6.18;;;4.28;;
36745;SDS011;22715;52.182;21.206;2022-07-30T13:24:21;3.40;;;3.05;;
36745;SDS011;22715;52.182;21.206;2022-07-30T13:26:50;3.85;;;2.95;;
36745;SDS011;22715;52.182;21.206;2022-07-30T13:29:22;4.50;;;2.95;;
36745;SDS011;22715;52.182;21.206;2022-07-30T13:31:48;4.55;;;3.85;;
36745;SDS011;22715;52.182;21.206;2022-07-30T13:34:24;3.60;;;3.30;;
36745;SDS011;22715;52.182;21.206;2022-07-30T13:49:49;6.22;;;3.35;;
36745;SDS011;22715;52.182;21.206;2022-07-30T13:52:15;4.93;;;4.43;;
36745;SDS011;22715;52.182;21.206;2022-07-30T13:54:40;5.47;;;3.95;;
36745;SDS011;22715;52.182;21.206;2022-07-30T13:57:06;4.05;;;3.67;;
36745;SDS011;22715;52.182;21.206;2022-07-30T13:59:31;6.40;;;3.65;;
36745;SDS011;22715;52.182;21.206;2022-07-30T14:01:57;8.00;;;3.78;;
36745;SDS011;22715;52.182;21.206;2022-07-30T14:04:24;5.15;;;4.13;;
36745;SDS011;22715;52.182;21.206;2022-07-30T14:06:50;4.68;;;3.97;;
36745;SDS011;22715;52.182;21.206;2022-07-30T14:09:15;3.90;;;3.53;;
36745;SDS011;22715;52.182;21.206;2022-07-30T14:11:41;5.28;;;3.75;;
36745;SDS011;22715;52.182;21.206;2022-07-30T14:14:06;9.10;;;3.67;;
36745;SDS011;22715;52.182;21.206;2022-07-30T14:16:31;5.15;;;3.33;;
36745;SDS011;22715;52.182;21.206;2022-07-30T14:18:57;4.72;;;3.70;;
36745;SDS011;22715;52.182;21.206;2022-07-30T14:21:22;3.90;;;3.42;;
36745;SDS011;22715;52.182;21.206;2022-07-30T14:23:48;5.65;;;4.18;;
36745;SDS011;22715;52.182;21.206;2022-07-30T14:26:13;12.65;;;4.82;;
36745;SDS011;22715;52.182;21.206;2022-07-30T14:28:39;5.97;;;3.65;;
36745;SDS011;22715;52.182;21.206;2022-07-30T14:31:04;3.72;;;3.35;;
36745;SDS011;22715;52.182;21.206;2022-07-30T14:33:50;4.05;;;3.30;;
36745;SDS011;22715;52.182;21.206;2022-07-30T14:36:16;3.10;;;2.80;;
36745;SDS011;22715;52.182;21.206;2022-07-30T14:38:42;5.18;;;3.08;;
36745;SDS011;22715;52.182;21.206;2022-07-30T14:41:14;5.45;;;3.42;;
36745;SDS011;22715;52.182;21.206;2022-07-30T14:43:43;3.65;;;3.03;;
36745;SDS011;22715;52.182;21.206;2022-07-30T14:46:08;3.45;;;2.67;;
36745;SDS011;22715;52.182;21.206;2022-07-30T14:48:34;4.53;;;4.07;;
36745;SDS011;22715;52.182;21.206;2022-07-30T14:50:59;5.05;;;3.13;;
36745;SDS011;22715;52.182;21.206;2022-07-30T14:53:26;4.22;;;2.72;;
36745;SDS011;22715;52.182;21.206;2022-07-30T14:55:57;4.93;;;3.10;;
36745;SDS011;22715;52.182;21.206;2022-07-30T14:58:25;6.25;;;3.63;;
36745;SDS011;22715;52.182;21.206;2022-07-30T15:00:51;5.82;;;3.35;;
36745;SDS011;22715;52.182;21.206;2022-07-30T15:03:19;4.55;;;3.50;;
36745;SDS011;22715;52.182;21.206;2022-07-30T15:05:44;4.32;;;2.78;;
36745;SDS011;22715;52.182;21.206;2022-07-30T15:08:09;2.85;;;2.63;;
36745;SDS011;22715;52.182;21.206;2022-07-30T15:10:35;4.78;;;3.15;;
36745;SDS011;22715;52.182;21.206;2022-07-30T15:13:00;2.53;;;2.33;;
36745;SDS011;22715;52.182;21.206;2022-07-30T15:15:38;3.30;;;3.00;;
36745;SDS011;22715;52.182;21.206;2022-07-30T15:18:03;10.05;;;3.42;;
36745;SDS011;22715;52.182;21.206;2022-07-30T15:20:36;3.28;;;2.50;;
36745;SDS011;22715;52.182;21.206;2022-07-30T15:25:56;3.45;;;2.58;;
36745;SDS011;22715;52.182;21.206;2022-07-30T15:28:24;3.00;;;2.55;;
36745;SDS011;22715;52.182;21.206;2022-07-30T15:30:50;3.90;;;3.50;;
36745;SDS011;22715;52.182;21.206;2022-07-30T15:33:25;3.67;;;2.40;;
36745;SDS011;22715;52.182;21.206;2022-07-30T15:36:21;3.47;;;3.17;;
36745;SDS011;22715;52.182;21.206;2022-07-30T15:38:50;3.15;;;2.92;;
36745;SDS011;22715;52.182;21.206;2022-07-30T15:46:57;6.22;;;2.80;;
36745;SDS011;22715;52.182;21.206;2022-07-30T15:51:58;2.90;;;2.17;;
36745;SDS011;22715;52.182;21.206;2022-07-30T16:12:32;5.38;;;3.45;;
36745;SDS011;22715;52.182;21.206;2022-07-30T16:17:34;2.42;;;2.22;;
36745;SDS011;22715;52.182;21.206;2022-07-30T16:20:06;3.67;;;2.70;;
36745;SDS011;22715;52.182;21.206;2022-07-30T16:22:35;2.45;;;2.17;;
36745;SDS011;22715;52.182;21.206;2022-07-30T16:25:00;4.60;;;2.80;;
36745;SDS011;22715;52.182;21.206;2022-07-30T16:27:34;4.50;;;2.10;;
36745;SDS011;22715;52.182;21.206;2022-07-30T16:29:59;2.60;;;2.40;;
36745;SDS011;22715;52.182;21.206;2022-07-30T16:32:31;2.60;;;2.40;;
36745;SDS011;22715;52.182;21.206;2022-07-30T16:37:47;5.82;;;2.15;;
36745;SDS011;22715;52.182;21.206;2022-07-30T16:40:13;2.83;;;2.55;;
36745;SDS011;22715;52.182;21.206;2022-07-30T16:45:32;5.05;;;2.70;;
36745;SDS011;22715;52.182;21.206;2022-07-30T16:48:00;3.63;;;2.72;;
36745;SDS011;22715;52.182;21.206;2022-07-30T16:50:29;3.45;;;2.63;;
36745;SDS011;22715;52.182;21.206;2022-07-30T16:52:55;2.50;;;2.30;;
36745;SDS011;22715;52.182;21.206;2022-07-30T16:55:20;5.18;;;2.72;;
36745;SDS011;22715;52.182;21.206;2022-07-30T16:57:48;3.25;;;2.50;;
36745;SDS011;22715;52.182;21.206;2022-07-30T17:00:16;3.13;;;2.83;;
36745;SDS011;22715;52.182;21.206;2022-07-30T17:02:42;3.85;;;2.88;;
36745;SDS011;22715;52.182;21.206;2022-07-30T17:05:10;4.85;;;2.28;;
36745;SDS011;22715;52.182;21.206;2022-07-30T17:07:39;6.75;;;2.83;;
36745;SDS011;22715;52.182;21.206;2022-07-30T17:10:04;3.20;;;2.40;;
36745;SDS011;22715;52.182;21.206;2022-07-30T17:12:36;2.80;;;2.40;;
36745;SDS011;22715;52.182;21.206;2022-07-30T17:15:02;2.72;;;2.53;;
36745;SDS011;22715;52.182;21.206;2022-07-30T17:27:57;4.57;;;3.08;;
36745;SDS011;22715;52.182;21.206;2022-07-30T17:33:09;3.90;;;3.03;;
36745;SDS011;22715;52.182;21.206;2022-07-30T17:35:38;4.05;;;3.13;;
36745;SDS011;22715;52.182;21.206;2022-07-30T17:38:03;6.22;;;3.35;;
36745;SDS011;22715;52.182;21.206;2022-07-30T17:40:29;3.95;;;3.38;;
36745;SDS011;22715;52.182;21.206;2022-07-30T17:42:58;5.70;;;3.38;;
36745;SDS011;22715;52.182;21.206;2022-07-30T17:46:09;3.00;;;2.70;;
36745;SDS011;22715;52.182;21.206;2022-07-30T17:48:40;4.97;;;2.72;;
36745;SDS011;22715;52.182;21.206;2022-07-30T17:51:26;3.85;;;3.20;;
36745;SDS011;22715;52.182;21.206;2022-07-30T17:53:59;3.05;;;2.75;;
36745;SDS011;22715;52.182;21.206;2022-07-30T17:56:25;5.80;;;3.22;;
36745;SDS011;22715;52.182;21.206;2022-07-30T17:58:53;7.43;;;2.53;;
36745;SDS011;22715;52.182;21.206;2022-07-30T18:01:26;5.05;;;2.85;;
36745;SDS011;22715;52.182;21.206;2022-07-30T18:03:54;2.75;;;2.53;;
36745;SDS011;22715;52.182;21.206;2022-07-30T18:08:47;3.72;;;2.72;;
36745;SDS011;22715;52.182;21.206;2022-07-30T18:11:20;2.80;;;2.60;;
36745;SDS011;22715;52.182;21.206;2022-07-30T18:13:45;4.50;;;3.40;;
36745;SDS011;22715;52.182;21.206;2022-07-30T18:16:11;4.18;;;2.67;;
36745;SDS011;22715;52.182;21.206;2022-07-30T18:18:37;5.95;;;2.20;;
36745;SDS011;22715;52.182;21.206;2022-07-30T18:21:14;3.88;;;2.88;;
36745;SDS011;22715;52.182;21.206;2022-07-30T18:23:40;2.95;;;2.67;;
36745;SDS011;22715;52.182;21.206;2022-07-30T18:26:05;6.43;;;3.92;;
36745;SDS011;22715;52.182;21.206;2022-07-30T18:28:31;7.38;;;4.10;;
36745;SDS011;22715;52.182;21.206;2022-07-30T18:30:56;4.25;;;2.80;;
36745;SDS011;22715;52.182;21.206;2022-07-30T18:33:22;4.95;;;3.20;;
36745;SDS011;22715;52.182;21.206;2022-07-30T18:35:53;3.38;;;2.78;;
36745;SDS011;22715;52.182;21.206;2022-07-30T18:38:19;5.28;;;3.33;;
36745;SDS011;22715;52.182;21.206;2022-07-30T18:40:52;4.35;;;2.42;;
36745;SDS011;22715;52.182;21.206;2022-07-30T18:43:27;3.63;;;2.58;;
36745;SDS011;22715;52.182;21.206;2022-07-30T18:45:52;5.05;;;3.50;;
36745;SDS011;22715;52.182;21.206;2022-07-30T18:48:18;5.78;;;2.80;;
36745;SDS011;22715;52.182;21.206;2022-07-30T18:50:43;4.55;;;3.33;;
36745;SDS011;22715;52.182;21.206;2022-07-30T18:53:09;3.00;;;2.70;;
36745;SDS011;22715;52.182;21.206;2022-07-30T18:55:34;3.38;;;2.95;;
36745;SDS011;22715;52.182;21.206;2022-07-30T18:57:59;3.13;;;2.53;;
36745;SDS011;22715;52.182;21.206;2022-07-30T19:00:27;4.28;;;3.10;;
36745;SDS011;22715;52.182;21.206;2022-07-30T19:02:55;6.07;;;2.58;;
36745;SDS011;22715;52.182;21.206;2022-07-30T19:05:23;3.17;;;2.88;;
36745;SDS011;22715;52.182;21.206;2022-07-30T19:11:02;3.83;;;3.47;;
36745;SDS011;22715;52.182;21.206;2022-07-30T19:13:53;3.42;;;2.70;;
36745;SDS011;22715;52.182;21.206;2022-07-30T19:16:18;3.53;;;3.22;;
36745;SDS011;22715;52.182;21.206;2022-07-30T19:21:14;4.60;;;2.30;;
36745;SDS011;22715;52.182;21.206;2022-07-30T19:26:08;6.63;;;2.55;;
36745;SDS011;22715;52.182;21.206;2022-07-30T19:28:34;2.97;;;2.60;;
36745;SDS011;22715;52.182;21.206;2022-07-30T19:31:00;5.40;;;2.75;;
36745;SDS011;22715;52.182;21.206;2022-07-30T19:33:28;3.67;;;3.28;;
36745;SDS011;22715;52.182;21.206;2022-07-30T19:35:54;4.72;;;3.05;;
36745;SDS011;22715;52.182;21.206;2022-07-30T19:38:22;7.00;;;3.10;;
36745;SDS011;22715;52.182;21.206;2022-07-30T19:40:50;11.02;;;2.72;;
36745;SDS011;22715;52.182;21.206;2022-07-30T19:43:16;3.70;;;3.05;;
36745;SDS011;22715;52.182;21.206;2022-07-30T19:45:41;6.13;;;2.97;;
36745;SDS011;22715;52.182;21.206;2022-07-30T19:48:10;6.13;;;3.08;;
36745;SDS011;22715;52.182;21.206;2022-07-30T19:50:36;9.05;;;3.42;;